Detall de PIREP

Printer-friendly versionPDF version

[2015/04/12 15:08:00]
Flight IATA:CT3204
Pilot Number:016
Company ICAO:CAT
Aircraft Type:B738/F
PAX:116
Departing Airport: LEPA
Destination Airport: EDDT
Alternate Airport:EDDP
Online: VATSIM
Route:MEROS UN853 MOBLO UZ662 KORED UN871 KUDES UN851 LOHRE UN746 ROBEL T200 RUDAK
Flight Level:F390
No Slew and time accel
No pause
Crash detect
Detect pilot in Cockpit between each 30 and 45 minutes
15:08 Zero fuel Weight: 113056 Lbs, Fuel Weight: 23705 Lbs
15:08 VATSIM:LEPA 122200Z 05007KT CAVOK 13/12 Q1028 NOSIG
15:08 VATSIM:EDDT 122150Z 20009KT CAVOK 10/M03 Q1021
15:08 Parking Brakes off
15:12 Take-off
15:12 Take off Weight: 136203 Lbs
15:12 Wind: 052º @ 007 Knots Heading: 059º
15:12 POS N39º 33´ 25´´ E002º 43´ 54´´
15:13 Flaps:3 at 154 Knots
15:13 Gear Up: 156 Knots
15:14 Flaps:2 at 204 Knots
15:14 Flaps:1 at 229 Knots
15:14 Flaps:0 at 247 Knots
15:28 Wind:066º@020Knots Heading: 014º Ground Speed: 447 Knots Altitude 35016 ft
15:32 TOC
15:32 Fuel Weight: 19145 Lb
15:43 Wind:355º@027 Knots Heading: 031º Ground Speed: 430 Knots Altitude 39461 ft
15:58 Wind:356º@008 Knots Heading: 025º Ground Speed: 446 Knots Altitude 39455 ft
16:13 Wind:094º@012 Knots Heading: 001º Ground Speed: 460 Knots Altitude 39445 ft
16:28 Wind:205º@003 Knots Heading: 022º Ground Speed: 457 Knots Altitude 39465 ft
16:43 Wind:240º@016 Knots Heading: 022º Ground Speed: 471 Knots Altitude 39393 ft
16:58 Wind:220º@051 Knots Heading: 061º Ground Speed: 503 Knots Altitude 39291 ft
17:13 Wind:209º@032 Knots Heading: 102º Ground Speed: 456 Knots Altitude 39202 ft
17:28 Wind:216º@033 Knots Heading: 227º Ground Speed: 413 Knots Altitude 39222 ft
17:36 TOD
17:36 Fuel Weight: 8703 Lb
17:39 Flaps:1 at 252 Knots
17:43 Wind:219º@055 Knots Heading: 009º Ground Speed: 395 Knots Altitude 26551 ft
17:54 Flaps:2 at 222 Knots
17:55 Flaps:3 at 206 Knots
17:55 Flaps:4 at 196 Knots
17:57 Gear Down: 179 Knots
17:57 Flaps:5 at 161 Knots
17:58 Wind:226º@013 Knots Heading: 254º Ground Speed: 143 Knots Altitude 2201 ft
17:58 Flaps:6 at 147 Knots
17:58 Flaps:7 at 139 Knots
17:59 Flaps:8 at 135 Knots
18:02 TouchDown:Rate -135 ft/min Speed: 127 Knots
18:02 VATSIM:EDDT 130050Z 23013KT CAVOK 12/01 Q1018
18:02 Land
18:02 Wind:229º@013 Knots
18:02 Heading: 260º
18:02 Flight Duration: 02:50
18:02 Landing Weight: 120452 Lbs
18:02 POS N52º 33´ 29´´ E013º 17´ 22´´
18:05 Parking brakes on
18:05 Block to Block Duration: 02:57
18:05 Final Fuel: 7237 Lbls
18:05 Spent Fuel: 16468 Lbls
18:05 Flight Length: 1190 NM
18:05 TOD Land Length: 123 NM

Exportar CSV

Powered by Drupal - Modified by Danger4k